Time;durP1;ratioP1;P1;durP2;ratioP2;P2;SDS_P1;SDS_P2;PMS_P1;PMS_P2;Temp;Humidity;BMP_temperature;BMP_pressure;BME280_temperature;BME280_humidity;BME280_pressure;Samples;Min_cycle;Max_cycle;Signal;HPM_P1;HPM_P2
2021/07/31 00:01:22;;;;;;;0.15;0.10;;;;;;;;;;5034192;28;20285;-60
2021/07/31 00:03:47;;;;;;;1.95;0.80;;;;;;;;;;5034266;28;20049;-60
2021/07/31 00:06:12;;;;;;;1.02;0.20;;;;;;;;;;5034160;28;20034;-60
2021/07/31 00:08:37;;;;;;;0.82;0.20;;;;;;;;;;5034071;28;20025;-60
2021/07/31 00:11:02;;;;;;;1.67;0.50;;;;;;;;;;5034265;28;20029;-60
2021/07/31 00:13:28;;;;;;;1.15;0.28;;;;;;;;;;5033905;28;20067;-60
2021/07/31 00:15:53;;;;;;;0.55;0.20;;;;;;;;;;5034216;28;20450;-60
2021/07/31 00:18:19;;;;;;;1.07;0.33;;;;;;;;;;5033885;28;20368;-60
2021/07/31 00:20:44;;;;;;;0.35;0.15;;;;;;;;;;5034043;28;20350;-60
2021/07/31 00:23:10;;;;;;;1.33;0.35;;;;;;;;;;5033997;28;20368;-60
2021/07/31 00:25:35;;;;;;;1.48;0.30;;;;;;;;;;5033977;28;20055;-60
2021/07/31 00:28:00;;;;;;;1.35;0.30;;;;;;;;;;5034015;28;20441;-60
2021/07/31 00:30:27;;;;;;;0.32;0.20;;;;;;;;;;5033754;28;20017;-60
2021/07/31 00:32:52;;;;;;;1.33;0.50;;;;;;;;;;5033882;28;20018;-59
2021/07/31 00:35:18;;;;;;;0.87;0.30;;;;;;;;;;5033564;28;20024;-60
2021/07/31 00:37:43;;;;;;;1.77;0.30;;;;;;;;;;5033609;28;21127;-60
2021/07/31 00:40:08;;;;;;;0.60;0.30;;;;;;;;;;5033398;28;20030;-60
2021/07/31 00:42:36;;;;;;;0.85;0.45;;;;;;;;;;5033886;28;20033;-60
2021/07/31 00:45:01;;;;;;;1.98;0.32;;;;;;;;;;5033551;28;20021;-60
2021/07/31 00:47:26;;;;;;;1.73;0.47;;;;;;;;;;5033517;28;20021;-60
2021/07/31 00:49:52;;;;;;;0.60;0.32;;;;;;;;;;5033816;28;20423;-60
2021/07/31 00:52:17;;;;;;;0.97;0.40;;;;;;;;;;5033299;28;20408;-60
2021/07/31 00:54:42;;;;;;;1.77;0.35;;;;;;;;;;5033566;28;20263;-60
2021/07/31 00:57:07;;;;;;;1.58;0.20;;;;;;;;;;5033253;28;20109;-60
2021/07/31 00:59:33;;;;;;;1.80;0.50;;;;;;;;;;5033519;28;20050;-60
2021/07/31 01:01:58;;;;;;;2.30;0.50;;;;;;;;;;5033142;28;20037;-60
2021/07/31 01:04:23;;;;;;;2.75;0.30;;;;;;;;;;5031684;28;20414;-60
2021/07/31 01:06:48;;;;;;;1.80;0.40;;;;;;;;;;5031917;28;20052;-60
2021/07/31 01:09:13;;;;;;;1.30;0.40;;;;;;;;;;5033180;28;20486;-60
2021/07/31 01:11:39;;;;;;;0.93;0.30;;;;;;;;;;5033375;28;20025;-60
2021/07/31 01:14:04;;;;;;;1.73;0.40;;;;;;;;;;5033002;28;20025;-60
2021/07/31 01:16:29;;;;;;;0.65;0.10;;;;;;;;;;5033208;28;20037;-60
2021/07/31 01:18:54;;;;;;;2.63;0.33;;;;;;;;;;5033007;28;20037;-60
2021/07/31 01:21:36;;;;;;;1.95;0.85;;;;;;;;;;5032669;28;20306;-60
2021/07/31 01:24:02;;;;;;;2.38;0.30;;;;;;;;;;5032908;28;20020;-60
2021/07/31 01:26:27;;;;;;;1.27;0.40;;;;;;;;;;5032522;28;20013;-60
2021/07/31 01:28:53;;;;;;;2.67;0.40;;;;;;;;;;5032925;28;20036;-60
2021/07/31 01:31:18;;;;;;;1.20;0.40;;;;;;;;;;5032931;28;20075;-60
2021/07/31 01:33:43;;;;;;;2.03;0.70;;;;;;;;;;5033014;28;20080;-60
2021/07/31 01:36:08;;;;;;;0.45;0.25;;;;;;;;;;5032829;28;20036;-60
2021/07/31 01:38:33;;;;;;;1.15;0.40;;;;;;;;;;5033070;28;20029;-60
2021/07/31 01:40:59;;;;;;;1.60;0.30;;;;;;;;;;5015233;28;20036;-60
2021/07/31 01:43:24;;;;;;;1.20;0.30;;;;;;;;;;5032567;28;20348;-60
2021/07/31 01:45:49;;;;;;;0.77;0.30;;;;;;;;;;5033053;28;20250;-60
2021/07/31 01:48:14;;;;;;;0.70;0.30;;;;;;;;;;5032423;28;20037;-60
2021/07/31 01:50:42;;;;;;;1.10;0.45;;;;;;;;;;5032910;28;20029;-60
2021/07/31 01:53:07;;;;;;;1.92;0.30;;;;;;;;;;5032087;28;20104;-60
2021/07/31 01:55:32;;;;;;;0.60;0.20;;;;;;;;;;5033171;28;20101;-60
2021/07/31 01:57:57;;;;;;;1.48;0.30;;;;;;;;;;5032716;28;20021;-60
2021/07/31 02:00:23;;;;;;;1.02;0.68;;;;;;;;;;5032487;28;20054;-60
2021/07/31 02:02:48;;;;;;;2.33;0.50;;;;;;;;;;5032533;28;20026;-60
2021/07/31 02:05:13;;;;;;;2.20;0.28;;;;;;;;;;5032691;28;20729;-60
2021/07/31 02:07:38;;;;;;;1.00;0.30;;;;;;;;;;5032534;28;20029;-60
2021/07/31 02:10:04;;;;;;;1.95;0.73;;;;;;;;;;5032756;28;20026;-60
2021/07/31 02:12:29;;;;;;;1.83;0.88;;;;;;;;;;5032648;28;20029;-60
2021/07/31 02:14:54;;;;;;;1.90;0.68;;;;;;;;;;5032547;28;20025;-60
2021/07/31 02:17:19;;;;;;;1.58;0.50;;;;;;;;;;5032467;28;20026;-61
2021/07/31 02:19:45;;;;;;;1.65;0.40;;;;;;;;;;5032617;28;20112;-60
2021/07/31 02:22:10;;;;;;;1.00;0.30;;;;;;;;;;5032204;28;20029;-60
2021/07/31 02:24:35;;;;;;;3.22;0.68;;;;;;;;;;5032767;28;20099;-60
2021/07/31 02:27:00;;;;;;;1.00;0.50;;;;;;;;;;5032278;28;20461;-60
2021/07/31 02:29:25;;;;;;;1.05;0.47;;;;;;;;;;5032234;28;20053;-60
2021/07/31 02:31:51;;;;;;;1.35;0.50;;;;;;;;;;5031673;28;20025;-60
2021/07/31 02:34:16;;;;;;;0.68;0.20;;;;;;;;;;5030849;28;20036;-60
2021/07/31 02:36:41;;;;;;;1.38;0.60;;;;;;;;;;5032695;28;20029;-60
2021/07/31 02:39:06;;;;;;;1.23;0.40;;;;;;;;;;5035736;28;20029;-61
2021/07/31 02:41:31;;;;;;;1.15;0.30;;;;;;;;;;5035887;28;20510;-60
2021/07/31 02:43:57;;;;;;;1.30;0.40;;;;;;;;;;5035751;28;20032;-60
2021/07/31 02:46:22;;;;;;;0.70;0.25;;;;;;;;;;5035638;28;20036;-60
2021/07/31 02:48:47;;;;;;;2.78;0.88;;;;;;;;;;5035721;28;20033;-60
2021/07/31 02:51:13;;;;;;;0.95;0.40;;;;;;;;;;5035680;28;20025;-60
2021/07/31 02:53:39;;;;;;;1.60;0.68;;;;;;;;;;5034185;28;20096;-60
2021/07/31 02:56:04;;;;;;;0.25;0.20;;;;;;;;;;5034342;28;20060;-60
2021/07/31 02:58:30;;;;;;;0.95;0.30;;;;;;;;;;5035636;28;20033;-60
2021/07/31 03:00:55;;;;;;;0.97;0.47;;;;;;;;;;5035448;28;20077;-60
2021/07/31 03:03:20;;;;;;;1.10;0.55;;;;;;;;;;5035388;28;20942;-60
2021/07/31 03:05:55;;;;;;;0.93;0.55;;;;;;;;;;5035576;28;20025;-60
2021/07/31 03:08:21;;;;;;;1.45;0.40;;;;;;;;;;5035420;28;20115;-60
2021/07/31 03:10:51;;;;;;;2.05;0.63;;;;;;;;;;5035364;28;20539;-60
2021/07/31 03:13:16;;;;;;;1.17;0.60;;;;;;;;;;5035058;28;20018;-60
2021/07/31 03:15:41;;;;;;;1.03;0.50;;;;;;;;;;5035371;28;20071;-60
2021/07/31 03:18:06;;;;;;;0.70;0.30;;;;;;;;;;5035048;28;20259;-60
2021/07/31 03:20:31;;;;;;;1.08;0.40;;;;;;;;;;5035217;28;20025;-60
2021/07/31 03:22:57;;;;;;;1.07;0.43;;;;;;;;;;5034833;28;20353;-60
2021/07/31 03:25:22;;;;;;;0.35;0.20;;;;;;;;;;5035116;28;20251;-60
2021/07/31 03:27:47;;;;;;;1.35;0.32;;;;;;;;;;5035120;28;20017;-60
2021/07/31 03:30:12;;;;;;;1.15;0.30;;;;;;;;;;5017201;28;20032;-60
2021/07/31 03:32:38;;;;;;;1.10;0.40;;;;;;;;;;5035172;28;20032;-60
2021/07/31 03:35:03;;;;;;;1.57;0.63;;;;;;;;;;5034789;28;20484;-60
2021/07/31 03:37:28;;;;;;;2.88;0.40;;;;;;;;;;5034751;28;20241;-60
2021/07/31 03:39:53;;;;;;;1.38;0.43;;;;;;;;;;5034860;28;20029;-60
2021/07/31 03:42:19;;;;;;;2.22;0.30;;;;;;;;;;5033167;28;20058;-60
2021/07/31 03:44:44;;;;;;;2.40;0.43;;;;;;;;;;5033309;28;20431;-60
2021/07/31 03:47:09;;;;;;;0.52;0.30;;;;;;;;;;5034510;28;20030;-60
2021/07/31 03:49:34;;;;;;;2.47;0.30;;;;;;;;;;5034375;28;20021;-60
2021/07/31 03:52:00;;;;;;;1.03;0.30;;;;;;;;;;5033947;28;20033;-60
2021/07/31 03:54:25;;;;;;;0.95;0.35;;;;;;;;;;5032893;28;20258;-60
2021/07/31 03:56:50;;;;;;;1.93;0.80;;;;;;;;;;5034691;28;20018;-60
2021/07/31 03:59:15;;;;;;;1.85;0.30;;;;;;;;;;5034247;28;20905;-60
2021/07/31 04:01:40;;;;;;;1.33;0.40;;;;;;;;;;5034172;28;20419;-60
2021/07/31 04:04:05;;;;;;;0.68;0.50;;;;;;;;;;5034282;28;20017;-60
2021/07/31 04:06:31;;;;;;;0.80;0.35;;;;;;;;;;5034355;28;20096;-61
2021/07/31 04:08:56;;;;;;;1.38;0.32;;;;;;;;;;5034211;28;20021;-60
2021/07/31 04:11:21;;;;;;;2.65;0.40;;;;;;;;;;5034338;28;20026;-60
2021/07/31 04:13:46;;;;;;;0.35;0.20;;;;;;;;;;5034246;28;20017;-60
2021/07/31 04:16:12;;;;;;;1.48;0.50;;;;;;;;;;5033961;28;20093;-60
2021/07/31 04:18:37;;;;;;;1.80;0.50;;;;;;;;;;5034055;28;20374;-60
2021/07/31 04:21:06;;;;;;;2.40;0.30;;;;;;;;;;5034221;28;20057;-60
2021/07/31 04:23:31;;;;;;;0.17;0.17;;;;;;;;;;5033983;28;20461;-60
2021/07/31 04:25:56;;;;;;;0.35;0.25;;;;;;;;;;5034119;28;20059;-60
2021/07/31 04:28:21;;;;;;;0.32;0.30;;;;;;;;;;5033645;28;20013;-60
2021/07/31 04:30:47;;;;;;;0.50;0.20;;;;;;;;;;5032860;28;20029;-60
2021/07/31 04:33:12;;;;;;;0.35;0.28;;;;;;;;;;5033436;28;20036;-60
2021/07/31 04:35:38;;;;;;;1.65;0.43;;;;;;;;;;5033277;28;20026;-60
2021/07/31 04:38:03;;;;;;;0.32;0.32;;;;;;;;;;5033647;28;20030;-60
2021/07/31 04:40:28;;;;;;;1.50;0.80;;;;;;;;;;5033581;28;20040;-60
2021/07/31 04:42:53;;;;;;;0.73;0.40;;;;;;;;;;5032760;28;20741;-60
2021/07/31 04:45:19;;;;;;;1.10;0.43;;;;;;;;;;5032160;28;20507;-60
2021/07/31 04:47:44;;;;;;;0.60;0.30;;;;;;;;;;5033618;28;20258;-60
2021/07/31 04:50:12;;;;;;;0.70;0.60;;;;;;;;;;5033252;28;20021;-60
2021/07/31 04:52:37;;;;;;;0.68;0.35;;;;;;;;;;5033449;28;20403;-60
2021/07/31 04:55:03;;;;;;;0.38;0.30;;;;;;;;;;5033423;28;20025;-60
2021/07/31 04:57:28;;;;;;;0.98;0.45;;;;;;;;;;5033341;28;20029;-60
2021/07/31 04:59:53;;;;;;;1.83;0.40;;;;;;;;;;5032442;28;20049;-60
2021/07/31 05:02:18;;;;;;;1.48;0.22;;;;;;;;;;5032902;28;20032;-60
2021/07/31 05:04:44;;;;;;;0.20;0.20;;;;;;;;;;5033396;28;20049;-60
2021/07/31 05:07:09;;;;;;;0.70;0.20;;;;;;;;;;5033077;28;20072;-60
2021/07/31 05:09:34;;;;;;;1.08;0.30;;;;;;;;;;5033126;28;20025;-60
2021/07/31 05:12:00;;;;;;;0.98;0.30;;;;;;;;;;5033246;28;20073;-60
2021/07/31 05:14:26;;;;;;;0.30;0.20;;;;;;;;;;5033122;28;20079;-60
2021/07/31 05:16:51;;;;;;;2.03;0.55;;;;;;;;;;5033299;28;20024;-60
2021/07/31 05:19:17;;;;;;;0.60;0.40;;;;;;;;;;5032882;28;20108;-60
2021/07/31 05:21:42;;;;;;;1.92;0.50;;;;;;;;;;5033113;28;20087;-60
2021/07/31 05:24:07;;;;;;;0.88;0.55;;;;;;;;;;5033059;28;20013;-60
2021/07/31 05:26:32;;;;;;;1.23;0.30;;;;;;;;;;5033045;28;20053;-60
2021/07/31 05:28:58;;;;;;;0.75;0.40;;;;;;;;;;5033126;28;20021;-60
2021/07/31 05:31:23;;;;;;;0.77;0.28;;;;;;;;;;5033055;28;20032;-60
2021/07/31 05:33:48;;;;;;;1.17;0.40;;;;;;;;;;5033039;28;20021;-60
2021/07/31 05:36:14;;;;;;;2.10;0.40;;;;;;;;;;5032976;28;20021;-60
2021/07/31 05:38:39;;;;;;;0.93;0.43;;;;;;;;;;5033078;28;20013;-60
2021/07/31 05:41:04;;;;;;;1.42;0.50;;;;;;;;;;5033016;28;20021;-60
2021/07/31 05:43:29;;;;;;;0.95;0.50;;;;;;;;;;5015098;28;20384;-60
2021/07/31 05:45:55;;;;;;;0.65;0.30;;;;;;;;;;5033129;28;20575;-60
2021/07/31 05:48:20;;;;;;;0.97;0.40;;;;;;;;;;5032344;28;20445;-60
2021/07/31 05:50:45;;;;;;;1.02;0.47;;;;;;;;;;5032884;28;20292;-60
2021/07/31 05:53:10;;;;;;;0.65;0.40;;;;;;;;;;5032654;28;20031;-60
2021/07/31 05:55:36;;;;;;;1.13;0.52;;;;;;;;;;5032742;28;20071;-60
2021/07/31 05:58:01;;;;;;;0.40;0.32;;;;;;;;;;5032921;28;20021;-60
2021/07/31 06:00:26;;;;;;;0.93;0.30;;;;;;;;;;5032385;28;20057;-60
2021/07/31 06:02:52;;;;;;;0.40;0.25;;;;;;;;;;5032904;28;20029;-61
2021/07/31 06:05:17;;;;;;;0.82;0.20;;;;;;;;;;5032589;28;20359;-60
2021/07/31 06:07:42;;;;;;;1.10;0.30;;;;;;;;;;5032832;28;20018;-60
2021/07/31 06:10:08;;;;;;;0.80;0.50;;;;;;;;;;5032347;28;20053;-60
2021/07/31 06:12:33;;;;;;;1.50;0.50;;;;;;;;;;5036144;28;20397;-60
2021/07/31 06:14:58;;;;;;;0.20;0.20;;;;;;;;;;5036417;28;20025;-60
2021/07/31 06:17:23;;;;;;;1.73;0.25;;;;;;;;;;5036099;28;20258;-60
2021/07/31 06:19:49;;;;;;;0.20;0.20;;;;;;;;;;5036418;28;20030;-60
2021/07/31 06:22:14;;;;;;;2.45;0.50;;;;;;;;;;5036158;28;20287;-60
2021/07/31 06:24:39;;;;;;;1.23;0.47;;;;;;;;;;5036236;28;20030;-60
2021/07/31 06:27:04;;;;;;;1.65;0.35;;;;;;;;;;5036470;28;20025;-60
2021/07/31 06:29:30;;;;;;;0.73;0.30;;;;;;;;;;5036168;28;20028;-60
2021/07/31 06:31:55;;;;;;;1.13;0.50;;;;;;;;;;5036138;28;20025;-60
2021/07/31 06:34:20;;;;;;;0.93;0.43;;;;;;;;;;5036105;28;20376;-60
2021/07/31 06:36:46;;;;;;;0.97;0.37;;;;;;;;;;5035999;28;20072;-60
2021/07/31 06:39:11;;;;;;;0.90;0.43;;;;;;;;;;5035688;28;20278;-60
2021/07/31 06:41:37;;;;;;;1.17;0.10;;;;;;;;;;5018278;28;20014;-60
2021/07/31 06:44:02;;;;;;;2.00;0.52;;;;;;;;;;5035636;28;20013;-60
2021/07/31 06:46:29;;;;;;;1.00;0.40;;;;;;;;;;5035664;28;20060;-60
2021/07/31 06:48:55;;;;;;;1.10;0.52;;;;;;;;;;5035803;28;20068;-60
2021/07/31 06:51:21;;;;;;;0.98;0.20;;;;;;;;;;5035592;28;20035;-60
2021/07/31 06:53:46;;;;;;;0.52;0.20;;;;;;;;;;5035639;28;20093;-60
2021/07/31 06:56:12;;;;;;;0.43;0.30;;;;;;;;;;5035592;28;20470;-60
2021/07/31 06:58:37;;;;;;;1.83;0.30;;;;;;;;;;5035747;28;20028;-60
2021/07/31 07:01:02;;;;;;;0.43;0.20;;;;;;;;;;5035339;28;20128;-60
2021/07/31 07:03:27;;;;;;;1.85;0.30;;;;;;;;;;5035257;28;20021;-60
2021/07/31 07:05:53;;;;;;;0.73;0.40;;;;;;;;;;5035638;28;20017;-60
2021/07/31 07:08:18;;;;;;;1.92;0.30;;;;;;;;;;5035218;28;20602;-60
2021/07/31 07:10:43;;;;;;;0.70;0.23;;;;;;;;;;5035553;28;20468;-60
2021/07/31 07:13:08;;;;;;;0.63;0.20;;;;;;;;;;5035115;28;20297;-60
2021/07/31 07:15:35;;;;;;;0.60;0.32;;;;;;;;;;5033817;28;20037;-60
2021/07/31 07:18:00;;;;;;;0.30;0.20;;;;;;;;;;5034470;28;20032;-60
2021/07/31 07:20:26;;;;;;;0.60;0.22;;;;;;;;;;5035222;28;20018;-60
2021/07/31 07:22:51;;;;;;;1.95;0.43;;;;;;;;;;5034416;28;20083;-60
2021/07/31 07:25:16;;;;;;;0.73;0.10;;;;;;;;;;5035050;28;20029;-60
2021/07/31 07:27:42;;;;;;;0.65;0.22;;;;;;;;;;5035140;28;20022;-60
2021/07/31 07:30:07;;;;;;;1.00;0.30;;;;;;;;;;5034886;28;20026;-60
2021/07/31 07:32:36;;;;;;;0.60;0.22;;;;;;;;;;5033651;28;20026;-60
2021/07/31 07:35:01;;;;;;;1.95;0.35;;;;;;;;;;5034267;28;20150;-60
2021/07/31 07:37:27;;;;;;;0.50;0.10;;;;;;;;;;5034919;28;20056;-61
2021/07/31 07:39:52;;;;;;;0.88;0.30;;;;;;;;;;5034825;28;20179;-60
2021/07/31 07:42:17;;;;;;;0.63;0.30;;;;;;;;;;5034667;28;20022;-60
2021/07/31 07:44:43;;;;;;;1.65;0.20;;;;;;;;;;5034717;28;20022;-60
2021/07/31 07:47:09;;;;;;;0.80;0.30;;;;;;;;;;5034651;28;20488;-60
2021/07/31 07:49:34;;;;;;;2.28;0.50;;;;;;;;;;5034731;28;20247;-60
2021/07/31 07:51:59;;;;;;;1.47;0.50;;;;;;;;;;5034783;28;20495;-60
2021/07/31 07:54:24;;;;;;;0.73;0.40;;;;;;;;;;5034081;28;20309;-60
2021/07/31 07:56:49;;;;;;;0.38;0.20;;;;;;;;;;5034771;28;20297;-60
2021/07/31 07:59:15;;;;;;;0.90;0.43;;;;;;;;;;5034318;28;20053;-60
2021/07/31 08:01:40;;;;;;;1.08;0.40;;;;;;;;;;5034054;28;20033;-59
2021/07/31 08:04:05;;;;;;;0.40;0.30;;;;;;;;;;5034341;28;20064;-59
2021/07/31 08:06:30;;;;;;;1.30;0.30;;;;;;;;;;5034188;28;20254;-59
2021/07/31 08:08:55;;;;;;;2.28;0.60;;;;;;;;;;5033871;28;20510;-59
2021/07/31 08:11:21;;;;;;;1.13;0.67;;;;;;;;;;5034124;28;20459;-59
2021/07/31 08:13:46;;;;;;;2.55;0.40;;;;;;;;;;5034220;28;20270;-59
2021/07/31 08:16:11;;;;;;;1.38;0.65;;;;;;;;;;5033993;28;20014;-59
2021/07/31 08:18:36;;;;;;;0.60;0.28;;;;;;;;;;5034083;28;20013;-59
2021/07/31 08:21:02;;;;;;;0.82;0.50;;;;;;;;;;5033940;28;20132;-59
2021/07/31 08:23:27;;;;;;;0.47;0.40;;;;;;;;;;5033733;28;20456;-59
2021/07/31 08:25:52;;;;;;;0.77;0.20;;;;;;;;;;5033954;28;20017;-59
2021/07/31 08:28:17;;;;;;;1.40;0.50;;;;;;;;;;5033670;28;20097;-59
2021/07/31 08:30:43;;;;;;;1.50;0.47;;;;;;;;;;5033954;28;20018;-59
2021/07/31 08:33:08;;;;;;;1.20;0.40;;;;;;;;;;5033417;28;20486;-59
2021/07/31 08:35:33;;;;;;;3.50;0.60;;;;;;;;;;5033655;28;20380;-60
2021/07/31 08:37:58;;;;;;;0.22;0.20;;;;;;;;;;5033676;28;20269;-60
2021/07/31 08:40:25;;;;;;;1.50;0.38;;;;;;;;;;5033558;28;20029;-59
2021/07/31 08:42:50;;;;;;;0.43;0.20;;;;;;;;;;5033558;28;20021;-59
2021/07/31 08:45:16;;;;;;;0.30;0.28;;;;;;;;;;5033469;28;20036;-59
2021/07/31 08:47:44;;;;;;;1.45;0.50;;;;;;;;;;5033386;28;20403;-60
2021/07/31 08:50:10;;;;;;;1.52;0.40;;;;;;;;;;5033401;28;20021;-60
2021/07/31 08:52:36;;;;;;;1.20;0.40;;;;;;;;;;5033439;28;20049;-60
2021/07/31 08:55:01;;;;;;;0.65;0.43;;;;;;;;;;5033077;28;20060;-59
2021/07/31 08:57:27;;;;;;;1.20;0.40;;;;;;;;;;5033846;28;20029;-60
2021/07/31 08:59:53;;;;;;;1.60;0.30;;;;;;;;;;5033224;28;20049;-60
2021/07/31 09:02:19;;;;;;;1.63;0.30;;;;;;;;;;5033038;28;20042;-59
2021/07/31 09:04:45;;;;;;;0.80;0.40;;;;;;;;;;5033638;28;20053;-59
2021/07/31 09:07:11;;;;;;;2.55;0.32;;;;;;;;;;5033110;28;20509;-60
2021/07/31 09:09:36;;;;;;;0.80;0.55;;;;;;;;;;5033261;28;20025;-60
2021/07/31 09:12:04;;;;;;;2.00;0.40;;;;;;;;;;5033204;28;20032;-60
2021/07/31 09:14:29;;;;;;;3.55;0.60;;;;;;;;;;5033067;28;20029;-59
2021/07/31 09:16:55;;;;;;;2.05;0.75;;;;;;;;;;5033128;28;20033;-59
2021/07/31 09:19:21;;;;;;;0.55;0.40;;;;;;;;;;5032855;28;20468;-59
2021/07/31 09:21:47;;;;;;;3.55;0.50;;;;;;;;;;5033070;28;20100;-60
2021/07/31 09:24:14;;;;;;;1.15;0.43;;;;;;;;;;5032679;28;20021;-60
2021/07/31 09:26:46;;;;;;;0.30;0.30;;;;;;;;;;5033076;28;20018;-59
2021/07/31 09:29:12;;;;;;;0.73;0.35;;;;;;;;;;5032693;28;20017;-60
2021/07/31 09:31:39;;;;;;;0.60;0.30;;;;;;;;;;5033191;28;20136;-60
2021/07/31 09:34:06;;;;;;;0.60;0.30;;;;;;;;;;5033028;28;20024;-59
2021/07/31 09:36:38;;;;;;;0.90;0.30;;;;;;;;;;5033066;28;20383;-60
2021/07/31 09:39:05;;;;;;;0.43;0.20;;;;;;;;;;5032952;28;20372;-59
2021/07/31 09:41:36;;;;;;;0.35;0.25;;;;;;;;;;5032904;28;20053;-60
2021/07/31 09:44:17;;;;;;;0.77;0.40;;;;;;;;;;5033014;28;20380;-59
2021/07/31 09:46:42;;;;;;;0.82;0.40;;;;;;;;;;5035048;28;20024;-59
2021/07/31 09:49:08;;;;;;;0.85;0.20;;;;;;;;;;5036628;28;20097;-59
2021/07/31 09:51:43;;;;;;;0.60;0.47;;;;;;;;;;5036516;28;20021;-60
2021/07/31 09:54:10;;;;;;;1.20;0.52;;;;;;;;;;5036836;28;20021;-59
2021/07/31 09:56:49;;;;;;;1.13;0.50;;;;;;;;;;5036268;28;20024;-59
2021/07/31 09:59:15;;;;;;;0.85;0.30;;;;;;;;;;5036556;28;20045;-60
2021/07/31 10:01:41;;;;;;;1.77;0.40;;;;;;;;;;5035688;28;20037;-60
2021/07/31 10:04:07;;;;;;;1.42;0.50;;;;;;;;;;5035196;28;20033;-60
2021/07/31 10:06:32;;;;;;;1.15;0.40;;;;;;;;;;5036601;28;20029;-59
2021/07/31 10:08:58;;;;;;;1.00;0.70;;;;;;;;;;5036423;28;20105;-60
2021/07/31 10:11:23;;;;;;;1.45;0.68;;;;;;;;;;5036501;28;20029;-60
2021/07/31 10:13:49;;;;;;;1.48;0.65;;;;;;;;;;5036614;28;20018;-59
2021/07/31 10:16:16;;;;;;;0.73;0.22;;;;;;;;;;5036178;28;20065;-59
2021/07/31 10:18:53;;;;;;;1.25;0.30;;;;;;;;;;5036393;28;20020;-60
2021/07/31 10:21:18;;;;;;;1.17;0.30;;;;;;;;;;5036231;28;20452;-60
2021/07/31 10:23:57;;;;;;;1.42;0.50;;;;;;;;;;5036179;28;20060;-59
2021/07/31 10:26:22;;;;;;;0.50;0.30;;;;;;;;;;5036237;28;20092;-59
2021/07/31 10:28:47;;;;;;;2.25;0.50;;;;;;;;;;5035382;28;20021;-60
2021/07/31 10:31:32;;;;;;;0.40;0.30;;;;;;;;;;5036035;28;20518;-60
2021/07/31 10:33:57;;;;;;;1.17;0.50;;;;;;;;;;5036272;28;20250;-59
2021/07/31 10:36:26;;;;;;;1.67;0.50;;;;;;;;;;5035831;28;20025;-59
2021/07/31 10:38:51;;;;;;;1.60;0.50;;;;;;;;;;5036189;28;20049;-59
2021/07/31 10:41:36;;;;;;;0.50;0.50;;;;;;;;;;5035871;28;20076;-59
2021/07/31 10:44:08;;;;;;;1.13;0.40;;;;;;;;;;5035632;28;20649;-59
2021/07/31 10:46:33;;;;;;;0.40;0.30;;;;;;;;;;5035811;28;20067;-60
2021/07/31 10:49:19;;;;;;;1.67;0.35;;;;;;;;;;5035473;28;20018;-60
2021/07/31 10:51:44;;;;;;;1.35;0.52;;;;;;;;;;5035514;28;20021;-59
2021/07/31 10:54:09;;;;;;;2.60;0.52;;;;;;;;;;5035506;28;20055;-60
2021/07/31 10:56:54;;;;;;;0.68;0.28;;;;;;;;;;5035552;28;20032;-60
2021/07/31 10:59:19;;;;;;;1.00;0.52;;;;;;;;;;5034451;28;20076;-60
2021/07/31 11:01:45;;;;;;;1.45;0.38;;;;;;;;;;5035622;28;20029;-59
2021/07/31 11:04:30;;;;;;;1.45;0.57;;;;;;;;;;5035336;28;20120;-59
2021/07/31 11:07:11;;;;;;;0.70;0.45;;;;;;;;;;5035487;28;20037;-60
2021/07/31 11:09:37;;;;;;;0.73;0.30;;;;;;;;;;5035534;28;20022;-59
2021/07/31 11:12:41;;;;;;;1.75;0.60;;;;;;;;;;5035458;28;20064;-59
2021/07/31 11:15:07;;;;;;;0.98;0.60;;;;;;;;;;4974241;28;20023;-60
2021/07/31 11:17:33;;;;;;;1.20;0.52;;;;;;;;;;4974465;28;20359;-59
2021/07/31 11:19:58;;;;;;;3.10;0.60;;;;;;;;;;4974311;28;20070;-60
2021/07/31 11:22:26;;;;;;;2.25;0.50;;;;;;;;;;4974054;28;20027;-60
2021/07/31 11:24:52;;;;;;;2.28;0.47;;;;;;;;;;4973916;28;20027;-60
2021/07/31 11:27:17;;;;;;;1.33;0.60;;;;;;;;;;4974052;28;20042;-59
2021/07/31 11:29:51;;;;;;;0.88;0.50;;;;;;;;;;4974020;28;20031;-59
2021/07/31 11:32:16;;;;;;;1.00;0.40;;;;;;;;;;4973800;28;20043;-60
2021/07/31 11:34:45;;;;;;;0.70;0.63;;;;;;;;;;4973802;28;20034;-60
2021/07/31 11:37:11;;;;;;;1.42;0.63;;;;;;;;;;4973818;28;20031;-59
2021/07/31 11:39:36;;;;;;;2.05;0.47;;;;;;;;;;4973886;28;20049;-59
2021/07/31 11:42:02;;;;;;;1.13;0.40;;;;;;;;;;4973464;28;20093;-59
2021/07/31 11:44:28;;;;;;;1.00;0.40;;;;;;;;;;4973604;28;20027;-60
2021/07/31 11:46:54;;;;;;;2.75;0.65;;;;;;;;;;5030874;28;20129;-59
2021/07/31 11:49:35;;;;;;;1.45;0.70;;;;;;;;;;5034689;28;20018;-60
2021/07/31 11:52:07;;;;;;;2.47;0.50;;;;;;;;;;5034766;28;20037;-60
2021/07/31 11:54:34;;;;;;;1.25;0.47;;;;;;;;;;5034403;28;20045;-59
2021/07/31 11:56:59;;;;;;;1.05;0.50;;;;;;;;;;5034627;28;20097;-59
2021/07/31 11:59:28;;;;;;;1.25;0.60;;;;;;;;;;5034329;28;20148;-59
2021/07/31 12:01:57;;;;;;;1.17;0.70;;;;;;;;;;5034342;28;20453;-60
2021/07/31 12:04:42;;;;;;;1.90;0.93;;;;;;;;;;5033221;28;20028;-59
2021/07/31 12:07:08;;;;;;;1.58;0.60;;;;;;;;;;5034174;28;20014;-59
2021/07/31 12:09:34;;;;;;;1.13;0.60;;;;;;;;;;5034019;28;20024;-59
2021/07/31 12:11:59;;;;;;;1.15;0.50;;;;;;;;;;5034265;28;20096;-60
2021/07/31 12:14:35;;;;;;;1.52;0.52;;;;;;;;;;5034159;28;20040;-60
2021/07/31 12:17:12;;;;;;;0.32;0.28;;;;;;;;;;5033997;28;20029;-60
2021/07/31 12:19:38;;;;;;;1.52;0.57;;;;;;;;;;5034065;28;20483;-60
2021/07/31 12:22:07;;;;;;;1.08;0.50;;;;;;;;;;5033812;28;20030;-60
2021/07/31 12:24:34;;;;;;;1.70;0.50;;;;;;;;;;5033915;28;20017;-60
2021/07/31 12:26:59;;;;;;;1.27;0.52;;;;;;;;;;5033972;28;20014;-59
2021/07/31 12:29:43;;;;;;;0.57;0.40;;;;;;;;;;5033844;28;20410;-60
2021/07/31 12:32:17;;;;;;;1.48;0.63;;;;;;;;;;5016105;28;20255;-60
2021/07/31 12:34:43;;;;;;;0.55;0.50;;;;;;;;;;5033595;28;20021;-60
2021/07/31 12:37:08;;;;;;;3.13;0.80;;;;;;;;;;5033336;28;20036;-60
2021/07/31 12:39:33;;;;;;;1.23;0.50;;;;;;;;;;5033594;28;20472;-60
2021/07/31 12:41:58;;;;;;;2.60;0.60;;;;;;;;;;5033600;28;20021;-60
2021/07/31 12:44:23;;;;;;;0.70;0.40;;;;;;;;;;5033446;28;20255;-60
2021/07/31 12:46:49;;;;;;;0.55;0.50;;;;;;;;;;5033555;28;20029;-60
2021/07/31 12:49:14;;;;;;;0.50;0.50;;;;;;;;;;5033319;28;20025;-60
2021/07/31 12:51:39;;;;;;;1.55;0.57;;;;;;;;;;5033650;28;20025;-60
2021/07/31 12:54:04;;;;;;;2.63;0.60;;;;;;;;;;5033393;28;20029;-59
2021/07/31 12:56:30;;;;;;;1.60;0.52;;;;;;;;;;5033454;28;20035;-59
2021/07/31 12:58:55;;;;;;;1.30;0.77;;;;;;;;;;5032540;28;20096;-59
2021/07/31 13:01:20;;;;;;;1.23;0.60;;;;;;;;;;5033308;28;20247;-60
2021/07/31 13:03:47;;;;;;;1.15;0.50;;;;;;;;;;5032952;28;20270;-60
2021/07/31 13:06:13;;;;;;;0.30;0.30;;;;;;;;;;5033107;28;20021;-59
2021/07/31 13:08:38;;;;;;;0.38;0.32;;;;;;;;;;5033330;28;20479;-59
2021/07/31 13:11:03;;;;;;;1.30;0.60;;;;;;;;;;5033350;28;20376;-60
2021/07/31 13:13:28;;;;;;;0.30;0.30;;;;;;;;;;5033108;28;20338;-60
2021/07/31 13:15:54;;;;;;;1.80;0.80;;;;;;;;;;5033341;28;20376;-59
2021/07/31 13:18:22;;;;;;;0.77;0.40;;;;;;;;;;5033105;28;20483;-60
2021/07/31 13:20:47;;;;;;;1.73;0.70;;;;;;;;;;5032423;28;20084;-60
2021/07/31 13:23:12;;;;;;;1.20;0.80;;;;;;;;;;5032832;28;20496;-60
2021/07/31 13:25:38;;;;;;;1.23;0.40;;;;;;;;;;5033239;28;20017;-59
2021/07/31 13:28:03;;;;;;;1.20;0.50;;;;;;;;;;5032876;28;20048;-59
2021/07/31 13:30:29;;;;;;;2.65;0.70;;;;;;;;;;5015286;28;20511;-60
2021/07/31 13:32:55;;;;;;;1.83;0.50;;;;;;;;;;5033151;28;20488;-59
2021/07/31 13:35:21;;;;;;;0.75;0.40;;;;;;;;;;5032750;28;20026;-59
2021/07/31 13:37:49;;;;;;;2.25;0.50;;;;;;;;;;5033106;28;20017;-59
2021/07/31 13:42:46;;;;;;;1.05;0.70;;;;;;;;;;5032850;28;20116;-60
2021/07/31 13:45:12;;;;;;;0.82;0.30;;;;;;;;;;5032931;28;20096;-60
2021/07/31 13:47:38;;;;;;;1.42;0.80;;;;;;;;;;5032863;28;20144;-59
2021/07/31 13:50:05;;;;;;;1.10;0.63;;;;;;;;;;5032723;28;20442;-59
2021/07/31 13:52:30;;;;;;;2.13;0.60;;;;;;;;;;5032879;28;20037;-59
2021/07/31 13:54:55;;;;;;;0.40;0.20;;;;;;;;;;5032679;28;20392;-60
2021/07/31 13:57:20;;;;;;;2.35;0.80;;;;;;;;;;5032797;28;20312;-60
2021/07/31 13:59:45;;;;;;;1.85;0.63;;;;;;;;;;5032264;28;20111;-60
2021/07/31 14:02:11;;;;;;;3.93;1.10;;;;;;;;;;5032604;28;20021;-60
2021/07/31 14:04:36;;;;;;;0.50;0.22;;;;;;;;;;5032681;28;20300;-60
2021/07/31 14:07:01;;;;;;;2.58;0.73;;;;;;;;;;5032622;28;20021;-60
2021/07/31 14:09:26;;;;;;;0.98;0.50;;;;;;;;;;5032811;28;20541;-59
2021/07/31 14:11:52;;;;;;;0.53;0.43;;;;;;;;;;5032979;28;20450;-59
2021/07/31 14:14:17;;;;;;;0.65;0.40;;;;;;;;;;5032403;28;20266;-60
2021/07/31 14:16:43;;;;;;;1.25;0.60;;;;;;;;;;5032593;28;20040;-60
2021/07/31 14:19:08;;;;;;;1.02;0.60;;;;;;;;;;5032299;28;20024;-60
2021/07/31 14:21:33;;;;;;;0.88;0.45;;;;;;;;;;5032684;28;20025;-59
2021/07/31 14:24:01;;;;;;;1.40;0.70;;;;;;;;;;5032558;28;20029;-59
2021/07/31 14:26:26;;;;;;;2.30;0.70;;;;;;;;;;5032908;28;20021;-60
2021/07/31 14:28:51;;;;;;;0.90;0.50;;;;;;;;;;5032400;28;20020;-60
2021/07/31 14:31:17;;;;;;;1.75;0.65;;;;;;;;;;5032433;28;20040;-60
2021/07/31 14:33:42;;;;;;;1.55;0.45;;;;;;;;;;5036005;28;20067;-60
2021/07/31 14:36:07;;;;;;;3.73;0.80;;;;;;;;;;5036056;28;20025;-60
2021/07/31 14:38:32;;;;;;;1.05;0.63;;;;;;;;;;5035987;28;20266;-60
2021/07/31 14:40:58;;;;;;;1.85;0.63;;;;;;;;;;5036045;28;20021;-60